Accueil
METAR-TAF:

METAR-TAF

Aéroports :

Aéroport d'Alexandroúpoli

Alexandroúpoli, Grèce

latitude: 40-51N, longitude: 025-55E, altitude: 7 m

Observation

Le bulletin a été fait il y a 4 heures et 2 minutes, à 19:20 UTC
Vent 15 kt de nord-est
Température 11°C
Humidité 76%
Pression 1022 hPa
Visibilité 10 km ou plus
Nuages fragmentés à une hauteur de 2500 ft

METAR: LGAL 181920Z 04015KT 9999 BKN025 11/07 Q1022

Heure: 02:22 (23:22 UTC)

Prévision

Le bulletin a été fait il y a 3 heures et 22 minutes, à 20:00 UTC
Prévision valable du 18 à 21 UTC au 19 à 06 UTC
Vent 15 kt de nord/nord-est
Visibilité 10 km ou plus
Nuages fragmentés à une hauteur de 2000 ft
Probabilité 30% :
Temporairement
du 18 à 21 UTC au 19 à 03 UTC
Visibilité: 5000 m
Nuages épars à une hauteur de 1200 ft
Nuages fragmentés à une hauteur de 2000 ft
pluie

TAF: LGAL 182000Z 1821/1906 02015KT 9999 BKN020 PROB30 TEMPO 1821/1903 5000 RA SCT012 BKN020

Observations et prévisions météorologiques de plus de 4000 aéroports (messages METAR et TAF).

Les stations disponibles sont représentées par des disques jaunes et rouges sur la carte.

Passer la souris dessus pour voir le nom de la station.

Cliquer dessus pour voir les observations et prévisions météorologiques.

Pour changer de carte: cliquez sur les boutons verts avec une croix noire pour zoomer, sur le bouton vert avec un tiret pour effectuer un zoom arrière, ou sur les flèches vertes pour les cartes adjacentes.


METAR-TAF: